Time;durP1;ratioP1;P1;durP2;ratioP2;P2;SDS_P1;SDS_P2;PMS_P1;PMS_P2;Temp;Humidity;BMP_temperature;BMP_pressure;BME280_temperature;BME280_humidity;BME280_pressure;Samples;Min_cycle;Max_cycle;Signal;HPM_P1;HPM_P2
2022/12/21 00:00:32;;;;;;;4.47;3.80;;;;;;;7.97;100.00;95360.97;4804595;29;20735;-87
2022/12/21 00:03:15;;;;;;;4.10;3.67;;;;;;;8.05;100.00;95371.47;4752038;30;20214;-87
2022/12/21 00:09:17;;;;;;;4.90;3.33;;;;;;;8.17;100.00;95361.78;4748859;30;20769;-86
2022/12/21 00:11:56;;;;;;;5.53;3.97;;;;;;;8.15;100.00;95366.28;4745497;30;20203;-87
2022/12/21 00:14:29;;;;;;;4.13;3.23;;;;;;;8.20;100.00;95364.09;4749124;30;20243;-87
2022/12/21 00:17:09;;;;;;;3.87;2.97;;;;;;;8.20;100.00;95369.25;4742347;30;20226;-86
2022/12/21 00:19:51;;;;;;;6.47;4.73;;;;;;;8.18;100.00;95366.00;4747409;30;20200;-87
2022/12/21 00:23:01;;;;;;;;;;;;;;;;;;;;;
2022/12/21 00:25:49;;;;;;;5.50;3.40;;;;;;;8.22;100.00;95362.19;4703517;30;20233;-86
2022/12/21 00:28:59;;;;;;;6.27;3.00;;;;;;;8.33;100.00;95359.47;4723688;30;20200;-87
2022/12/21 00:31:46;;;;;;;5.17;2.87;;;;;;;8.36;100.00;95363.56;4713223;30;20205;-86
2022/12/21 00:34:23;;;;;;;3.60;2.90;;;;;;;8.39;100.00;95360.69;4719300;30;20200;-86
2022/12/21 00:37:09;;;;;;;3.10;2.80;;;;;;;8.49;100.00;95358.91;4733563;30;20224;-86
2022/12/21 00:43:13;;;;;;;3.60;2.50;;;;;;;8.59;100.00;95364.06;4709442;30;20580;-86
2022/12/21 00:46:00;;;;;;;2.90;2.60;;;;;;;8.70;100.00;95359.53;4692542;30;20230;-87
2022/12/21 00:48:50;;;;;;;4.40;2.70;;;;;;;8.69;100.00;95351.91;4699433;30;20213;-86
2022/12/21 00:51:37;;;;;;;3.83;2.60;;;;;;;8.78;100.00;95354.47;4704404;30;20724;-86
2022/12/21 00:57:27;;;;;;;4.30;2.30;;;;;;;8.86;100.00;95340.81;4708183;30;20210;-86
2022/12/21 01:00:02;;;;;;;3.57;2.03;;;;;;;8.92;100.00;95331.66;4705714;30;20225;-86
2022/12/21 01:02:55;;;;;;;3.57;1.90;;;;;;;8.96;100.00;95341.59;4738320;30;20333;-87
2022/12/21 01:05:44;;;;;;;2.73;1.97;;;;;;;9.06;100.00;95331.19;4734571;30;20239;-86
2022/12/21 01:12:01;;;;;;;2.63;2.30;;;;;;;9.10;100.00;95345.50;4758596;30;20227;-88
2022/12/21 01:14:59;;;;;;;2.53;2.20;;;;;;;9.14;100.00;95343.44;4762666;30;20212;-87
2022/12/21 01:18:09;;;;;;;2.53;2.00;;;;;;;9.12;100.00;95341.00;4760600;30;20225;-87
2022/12/21 01:20:48;;;;;;;2.80;2.10;;;;;;;9.11;100.00;95341.16;4716785;30;20774;-87
2022/12/21 01:23:22;;;;;;;3.03;2.20;;;;;;;9.00;100.00;95347.31;4753606;30;20246;-87
2022/12/21 01:26:03;;;;;;;3.57;2.17;;;;;;;9.07;100.00;95340.59;4756842;30;20242;-87
2022/12/21 01:28:44;;;;;;;3.97;1.90;;;;;;;9.08;100.00;95342.22;4781806;30;20208;-86
2022/12/21 01:34:15;;;;;;;1.83;1.73;;;;;;;8.99;100.00;95350.84;4775725;30;20213;-87
2022/12/21 01:37:03;;;;;;;2.00;1.70;;;;;;;8.99;100.00;95345.66;4770118;30;20784;-86
2022/12/21 01:39:40;;;;;;;3.17;1.90;;;;;;;8.92;100.00;95344.59;4782842;30;20192;-86
2022/12/21 01:42:16;;;;;;;1.73;1.57;;;;;;;8.92;100.00;95345.44;4767591;30;20203;-86
2022/12/21 01:45:26;;;;;;;4.03;1.70;;;;;;;8.92;100.00;95344.59;4768384;30;20212;-88
2022/12/21 01:48:21;;;;;;;1.50;1.40;;;;;;;8.97;100.00;95351.00;4792186;29;20213;-88
2022/12/21 01:51:04;;;;;;;2.17;1.70;;;;;;;8.87;100.00;95342.47;4783207;29;20186;-85
2022/12/21 01:53:55;;;;;;;3.80;1.57;;;;;;;8.84;100.00;95336.75;4815483;29;20224;-87
2022/12/21 02:00:18;;;;;;;1.90;1.80;;;;;;;8.89;100.00;95332.75;4824093;29;20196;-89
2022/12/21 02:06:17;;;;;;;2.43;1.50;;;;;;;8.96;100.00;95335.59;4821364;29;20224;-88
2022/12/21 02:08:58;;;;;;;3.67;1.63;;;;;;;8.86;100.00;95335.66;4808788;29;20304;-85
2022/12/21 02:15:21;;;;;;;3.33;1.60;;;;;;;8.95;100.00;95329.63;4795742;29;20202;-88
2022/12/21 02:18:02;;;;;;;1.40;1.30;;;;;;;8.89;100.00;95326.78;4791001;29;20239;-88
2022/12/21 02:20:47;;;;;;;1.30;1.20;;;;;;;8.94;100.00;95322.00;4811632;29;20245;-88
2022/12/21 02:27:24;;;;;;;0.97;0.87;;;;;;;9.05;100.00;95326.97;4736393;30;20343;-87
2022/12/21 02:30:21;;;;;;;0.90;0.90;;;;;;;9.21;100.00;95327.19;4731049;30;20315;-86
2022/12/21 02:36:26;;;;;;;1.60;1.20;;;;;;;9.14;100.00;95320.13;4744927;30;20231;-86
2022/12/21 02:39:56;;;;;;;1.67;1.17;;;;;;;9.12;100.00;95315.09;4728563;30;20212;-87
2022/12/21 02:49:47;;;;;;;1.33;1.10;;;;;;;9.24;100.00;95319.09;4553568;31;20227;-86
2022/12/21 02:52:30;;;;;;;0.80;0.80;;;;;;;9.36;100.00;95315.38;4537323;31;20306;-87
2022/12/21 02:55:15;;;;;;;0.70;0.70;;;;;;;9.30;100.00;95321.13;4536171;31;20314;-87
2022/12/21 02:57:52;;;;;;;1.00;1.00;;;;;;;9.26;100.00;95316.38;4546267;31;20220;-87
2022/12/21 03:00:45;;;;;;;0.70;0.70;;;;;;;9.29;100.00;95306.53;4553829;31;20227;-87
2022/12/21 03:03:53;;;;;;;0.97;0.97;;;;;;;9.33;100.00;95315.66;4589082;31;20218;-86
2022/12/21 03:20:02;;;;;;;0.97;0.77;;;;;;;9.20;100.00;95309.19;4617959;30;20259;-86
2022/12/21 03:26:28;;;;;;;1.13;0.70;;;;;;;9.27;100.00;95320.59;4676076;30;20721;-87
2022/12/21 03:29:14;;;;;;;1.70;0.90;;;;;;;9.16;100.00;95316.41;4611564;31;20221;-87
2022/12/21 03:32:31;;;;;;;;;;;;;;;;;;;;;
2022/12/21 03:38:50;;;;;;;0.70;0.70;;;;;;;9.25;100.00;95305.19;4551576;31;20219;-87
2022/12/21 03:42:08;;;;;;;0.80;0.80;;;;;;;9.23;100.00;95312.28;4555620;31;20808;-87
2022/12/21 03:45:28;;;;;;;;;;;;;;;;;;;;;
2022/12/21 03:48:30;;;;;;;2.50;0.90;;;;;;;9.12;100.00;95309.09;4538500;31;20774;-87
2022/12/21 03:55:07;;;;;;;;;;;;;;;;;;;;;
2022/12/21 03:57:54;;;;;;;0.83;0.83;;;;;;;8.99;100.00;95299.88;4567220;31;20216;-86
2022/12/21 04:00:49;;;;;;;2.63;0.90;;;;;;;9.07;100.00;95296.56;4619272;31;20606;-87
2022/12/21 04:03:40;;;;;;;0.67;0.60;;;;;;;9.09;100.00;95284.28;4654668;30;20240;-86
2022/12/21 04:06:37;;;;;;;0.70;0.70;;;;;;;9.13;100.00;95292.59;4660051;30;20717;-86
2022/12/21 04:12:39;;;;;;;1.63;0.70;;;;;;;9.18;100.00;95293.75;4688707;30;20258;-86
2022/12/21 04:15:18;;;;;;;0.70;0.70;;;;;;;9.29;100.00;95292.78;4686456;30;20211;-87
2022/12/21 04:17:55;;;;;;;2.03;0.70;;;;;;;9.33;100.00;95294.91;4658978;30;20218;-86
2022/12/21 04:20:42;;;;;;;1.70;0.60;;;;;;;9.33;100.00;95291.50;4684421;30;20214;-87
2022/12/21 04:28:58;;;;;;;0.70;0.70;;;;;;;9.27;100.00;95287.72;4758100;30;20253;-86
2022/12/21 04:31:51;;;;;;;1.90;0.70;;;;;;;9.35;100.00;95285.22;4757750;30;20203;-87
2022/12/21 04:34:30;;;;;;;0.87;0.80;;;;;;;9.27;100.00;95287.72;4766083;30;20211;-87
2022/12/21 04:40:01;;;;;;;0.70;0.70;;;;;;;9.24;100.00;95285.41;4780904;30;20239;-87
2022/12/21 04:42:34;;;;;;;0.60;0.60;;;;;;;9.26;100.00;95283.50;4761040;30;20195;-87
2022/12/21 04:45:08;;;;;;;1.23;0.70;;;;;;;9.28;100.00;95285.97;4784117;29;20262;-86
2022/12/21 04:47:47;;;;;;;0.63;0.63;;;;;;;9.39;99.41;95290.13;4785699;29;20300;-87
2022/12/21 04:50:35;;;;;;;;;;;;;;;;;;;;;
2022/12/21 04:53:09;;;;;;;0.80;0.80;;;;;;;9.29;100.00;95296.19;4825750;29;20182;-86
2022/12/21 04:56:05;;;;;;;1.13;0.90;;;;;;;9.35;100.00;95294.75;4799595;29;20205;-86
2022/12/21 04:58:42;;;;;;;1.00;1.00;;;;;;;9.39;100.00;95301.28;4804550;29;20202;-86
2022/12/21 05:01:43;;;;;;;0.80;0.80;;;;;;;9.39;100.00;95295.31;4808490;29;20198;-87
2022/12/21 05:04:23;;;;;;;1.00;0.90;;;;;;;9.48;99.23;95294.41;4794659;29;20220;-88
2022/12/21 05:07:05;;;;;;;12.03;4.70;;;;;;;9.36;99.86;95296.38;4806383;29;20244;-87
2022/12/21 05:10:15;;;;;;;8.70;3.50;;;;;;;9.36;99.64;95286.88;4807951;29;20198;-86
2022/12/21 05:13:11;;;;;;;4.50;1.60;;;;;;;9.36;99.79;95279.09;4804972;29;20276;-87
2022/12/21 05:15:54;;;;;;;1.10;1.00;;;;;;;9.34;99.67;95281.00;4793487;29;20279;-86
2022/12/21 05:21:31;;;;;;;0.83;0.83;;;;;;;9.38;99.10;95293.69;4727104;30;20568;-87
2022/12/21 05:24:10;;;;;;;1.07;0.97;;;;;;;9.31;99.10;95294.25;4716181;30;20209;-87
2022/12/21 05:26:41;;;;;;;0.97;0.87;;;;;;;9.26;99.23;95290.44;4690237;30;20793;-87
2022/12/21 05:29:18;;;;;;;1.07;0.90;;;;;;;9.33;99.29;95288.91;4733700;30;20205;-87
2022/12/21 05:31:46;;;;;;;1.03;0.80;;;;;;;9.29;99.31;95285.00;4727515;30;20227;-87
2022/12/21 05:34:19;;;;;;;0.83;0.83;;;;;;;9.23;99.62;95282.97;4723985;30;20756;-86
2022/12/21 05:36:44;;;;;;;1.23;0.87;;;;;;;9.16;99.38;95285.34;4731072;30;20209;-87
2022/12/21 05:39:10;;;;;;;1.10;0.83;;;;;;;9.17;100.00;95279.19;4725491;30;20213;-86
2022/12/21 05:41:35;;;;;;;1.83;0.77;;;;;;;9.18;100.00;95283.41;4724012;30;20197;-86
2022/12/21 05:44:00;;;;;;;1.53;1.30;;;;;;;9.20;99.88;95284.09;4716441;30;20221;-86
2022/12/21 05:46:26;;;;;;;0.93;0.93;;;;;;;9.19;100.00;95282.47;4717812;30;20310;-86
2022/12/21 05:48:53;;;;;;;1.40;0.90;;;;;;;9.23;100.00;95275.22;4718207;30;20219;-87
2022/12/21 05:51:19;;;;;;;0.90;0.90;;;;;;;9.26;99.81;95270.53;4728427;30;20259;-87
2022/12/21 05:53:45;;;;;;;1.77;1.10;;;;;;;9.30;99.12;95271.09;4717385;30;20194;-86
2022/12/21 05:56:12;;;;;;;0.80;0.80;;;;;;;9.22;98.77;95261.44;4720020;30;20710;-85
2022/12/21 05:58:39;;;;;;;1.03;0.90;;;;;;;9.21;99.66;95275.34;4749934;29;20214;-86
2022/12/21 06:01:06;;;;;;;2.40;1.00;;;;;;;9.27;98.82;95269.56;4808395;29;20245;-86
2022/12/21 06:03:32;;;;;;;0.70;0.70;;;;;;;9.30;98.31;95268.50;4808703;29;20202;-86
2022/12/21 06:06:16;;;;;;;1.00;0.87;;;;;;;9.28;98.36;95273.81;4798208;29;20265;-85
2022/12/21 06:08:43;;;;;;;1.77;1.07;;;;;;;9.15;98.76;95269.94;4802137;29;20186;-85
2022/12/21 06:11:11;;;;;;;0.90;0.80;;;;;;;9.20;98.13;95273.72;4783024;29;20659;-86
2022/12/21 06:13:36;;;;;;;1.93;0.90;;;;;;;9.19;98.44;95281.63;4805865;29;20271;-86
2022/12/21 06:16:08;;;;;;;1.43;0.93;;;;;;;9.19;98.51;95276.44;4805201;29;20215;-85
2022/12/21 06:18:34;;;;;;;0.97;0.87;;;;;;;9.14;97.78;95274.31;4792177;29;20201;-86
2022/12/21 06:21:06;;;;;;;1.03;0.90;;;;;;;9.12;98.56;95278.81;4808575;29;20190;-87
2022/12/21 06:23:34;;;;;;;4.33;1.40;;;;;;;9.15;98.64;95281.13;4793280;29;20182;-86
2022/12/21 06:26:11;;;;;;;1.23;1.00;;;;;;;9.11;97.99;95284.97;4808213;29;20377;-86
2022/12/21 06:28:36;;;;;;;2.67;1.20;;;;;;;9.01;98.76;95281.59;4793193;29;20189;-85
2022/12/21 06:31:10;;;;;;;2.03;1.40;;;;;;;8.92;99.72;95285.03;4796709;29;20191;-86
2022/12/21 06:36:55;;;;;;;1.23;1.13;;;;;;;8.94;100.00;95278.78;4808696;29;20271;-87
2022/12/21 06:39:20;;;;;;;1.00;1.00;;;;;;;8.94;100.00;95280.56;4792379;29;20198;-86
2022/12/21 06:42:04;;;;;;;1.97;1.10;;;;;;;8.94;100.00;95278.78;4807180;29;20281;-85
2022/12/21 06:44:43;;;;;;;1.27;1.17;;;;;;;8.92;100.00;95282.44;4807686;29;20189;-87
2022/12/21 06:47:39;;;;;;;1.30;1.20;;;;;;;8.95;100.00;95277.00;4799502;29;20225;-85
2022/12/21 06:50:32;;;;;;;1.67;1.57;;;;;;;8.92;100.00;95279.88;4806711;29;20246;-87
2022/12/21 06:52:57;;;;;;;1.10;1.00;;;;;;;8.90;100.00;95284.38;4801568;29;20198;-86
2022/12/21 06:55:28;;;;;;;1.23;1.00;;;;;;;8.82;100.00;95285.09;4806375;29;20717;-86
2022/12/21 06:57:59;;;;;;;3.50;1.40;;;;;;;8.86;100.00;95280.47;4807959;29;20198;-87
2022/12/21 07:00:24;;;;;;;3.20;2.17;;;;;;;8.79;100.00;95287.97;4791049;29;20366;-86
2022/12/21 07:02:55;;;;;;;4.60;2.43;;;;;;;8.66;100.00;95293.50;4805904;29;20293;-86
2022/12/21 07:05:23;;;;;;;3.10;1.50;;;;;;;8.79;100.00;95290.56;4803897;29;20202;-86
2022/12/21 07:08:28;;;;;;;1.30;1.00;;;;;;;8.79;100.00;95293.16;4812012;29;20266;-88
2022/12/21 07:11:19;;;;;;;2.80;0.90;;;;;;;8.86;100.00;95296.00;4821994;29;20653;-86
2022/12/21 07:17:34;;;;;;;1.33;0.97;;;;;;;8.72;100.00;95303.25;4809458;29;20983;-87
2022/12/21 07:20:03;;;;;;;1.33;1.20;;;;;;;8.68;100.00;95299.34;4737536;30;20239;-88
2022/12/21 07:22:28;;;;;;;1.37;1.27;;;;;;;8.75;100.00;95300.41;4777463;29;20238;-85
2022/12/21 07:24:59;;;;;;;1.47;1.30;;;;;;;8.70;100.00;95301.78;4797050;29;20251;-85
2022/12/21 07:27:24;;;;;;;1.37;1.27;;;;;;;8.81;100.00;95301.59;4791018;29;20221;-82
2022/12/21 07:29:50;;;;;;;1.30;1.20;;;;;;;8.71;100.00;95311.97;4790658;29;20198;-81
2022/12/21 07:32:15;;;;;;;1.97;1.00;;;;;;;8.80;100.00;95313.72;4808332;29;20209;-82
2022/12/21 07:34:40;;;;;;;1.57;1.23;;;;;;;8.73;100.00;95315.25;4799185;29;20671;-82
2022/12/21 07:37:06;;;;;;;2.73;1.40;;;;;;;8.84;100.00;95316.84;4805296;29;20209;-81
2022/12/21 07:39:31;;;;;;;1.37;1.27;;;;;;;8.88;100.00;95322.56;4797193;29;20186;-83
2022/12/21 07:41:59;;;;;;;1.50;1.40;;;;;;;8.85;100.00;95318.47;4806256;29;20194;-85
2022/12/21 07:44:35;;;;;;;1.63;1.50;;;;;;;8.92;100.00;95318.72;4784780;29;20289;-89
2022/12/21 07:47:00;;;;;;;3.27;1.20;;;;;;;8.91;100.00;95314.50;4794638;29;20775;-88
2022/12/21 07:49:45;;;;;;;2.43;1.20;;;;;;;8.92;100.00;95310.94;4798539;29;20250;-90
2022/12/21 07:52:29;;;;;;;1.63;1.07;;;;;;;8.83;100.00;95315.19;4806120;29;20210;-88
2022/12/21 07:54:58;;;;;;;2.00;1.10;;;;;;;8.86;100.00;95314.94;4792821;29;20193;-87
2022/12/21 07:57:26;;;;;;;1.70;1.27;;;;;;;8.79;100.00;95317.28;4790150;29;20228;-87
2022/12/21 07:59:57;;;;;;;1.50;1.20;;;;;;;8.84;100.00;95321.22;4796397;29;20266;-89
2022/12/21 08:05:54;;;;;;;3.70;1.90;;;;;;;8.80;100.00;95325.84;4713573;30;20269;-88
2022/12/21 08:08:25;;;;;;;3.43;1.77;;;;;;;8.75;100.00;95336.66;4687699;30;20210;-90
2022/12/21 08:13:46;;;;;;;2.67;1.60;;;;;;;8.76;100.00;95338.28;4701458;30;20743;-89
2022/12/21 08:16:24;;;;;;;2.37;1.47;;;;;;;8.71;100.00;95343.03;4695134;30;20271;-89
2022/12/21 08:19:15;;;;;;;1.77;1.67;;;;;;;8.78;100.00;95338.94;4699242;30;20237;-88
2022/12/21 08:21:42;;;;;;;2.37;1.80;;;;;;;8.74;100.00;95340.16;4701629;30;20206;-86
2022/12/21 08:24:15;;;;;;;2.40;1.50;;;;;;;8.90;100.00;95336.16;4695844;30;20202;-86
2022/12/21 08:26:58;;;;;;;2.83;1.63;;;;;;;8.82;100.00;95341.25;4707756;30;20312;-87
2022/12/21 08:29:44;;;;;;;2.03;1.60;;;;;;;8.91;100.00;95345.56;4708629;30;20219;-90
2022/12/21 08:32:22;;;;;;;1.67;1.40;;;;;;;8.88;100.00;95346.69;4703770;30;20278;-88
2022/12/21 08:34:47;;;;;;;1.53;1.43;;;;;;;8.87;100.00;95346.81;4703571;30;20272;-85
2022/12/21 08:37:20;;;;;;;1.30;1.20;;;;;;;8.77;100.00;95339.91;4700800;30;20374;-88
2022/12/21 08:39:51;;;;;;;1.77;1.50;;;;;;;8.95;100.00;95339.97;4697903;30;20253;-89
2022/12/21 08:42:19;;;;;;;3.47;1.47;;;;;;;8.92;100.00;95329.06;4722812;29;20237;-88
2022/12/21 08:44:50;;;;;;;2.20;1.20;;;;;;;9.01;100.00;95334.22;4785227;29;20183;-89
2022/12/21 08:47:18;;;;;;;2.23;1.20;;;;;;;9.13;100.00;95326.25;4803085;29;20238;-88
2022/12/21 08:49:46;;;;;;;1.43;1.03;;;;;;;9.08;100.00;95331.88;4793791;29;20202;-86
2022/12/21 08:52:14;;;;;;;1.37;1.27;;;;;;;9.13;100.00;95324.50;4789986;29;20613;-87
2022/12/21 08:54:51;;;;;;;1.10;1.00;;;;;;;9.23;100.00;95319.25;4789171;29;20194;-88
2022/12/21 08:58:02;;;;;;;1.00;1.00;;;;;;;9.19;100.00;95321.34;4789557;29;20214;-87
2022/12/21 09:00:29;;;;;;;2.43;0.90;;;;;;;9.25;100.00;95349.22;4819779;29;20650;-86
2022/12/21 09:03:06;;;;;;;1.17;1.07;;;;;;;9.19;100.00;95354.16;4802847;29;20193;-87
2022/12/21 09:05:45;;;;;;;1.43;0.97;;;;;;;9.14;100.00;95357.22;4785399;29;20230;-88
2022/12/21 09:08:12;;;;;;;1.33;0.90;;;;;;;9.14;100.00;95349.44;4802349;29;20183;-88
2022/12/21 09:10:49;;;;;;;0.80;0.80;;;;;;;9.17;100.00;95351.72;4812833;29;20251;-88
2022/12/21 09:13:27;;;;;;;2.33;1.00;;;;;;;9.23;100.00;95351.16;4816271;29;20690;-88
2022/12/21 09:16:33;;;;;;;1.80;0.80;;;;;;;9.32;100.00;95339.94;4790959;29;20210;-90
2022/12/21 09:19:10;;;;;;;1.40;1.30;;;;;;;9.20;100.00;95348.06;4810259;29;20673;-88
2022/12/21 09:22:23;;;;;;;1.47;0.90;;;;;;;9.25;100.00;95349.22;4808160;29;20294;-87
2022/12/21 09:25:03;;;;;;;1.33;1.20;;;;;;;9.30;100.00;95341.84;4833405;29;20197;-88
2022/12/21 09:27:29;;;;;;;0.83;0.83;;;;;;;9.31;100.00;95356.44;4829161;29;20205;-88
2022/12/21 09:30:37;;;;;;;2.20;1.50;;;;;;;9.42;100.00;95352.00;4808567;29;20541;-89
2022/12/21 09:33:08;;;;;;;0.90;0.90;;;;;;;9.35;100.00;95360.34;4802585;29;20210;-88
2022/12/21 09:39:25;;;;;;;1.60;0.93;;;;;;;9.63;100.00;95375.91;4817721;29;20274;-89
2022/12/21 09:42:25;;;;;;;0.93;0.90;;;;;;;9.46;100.00;95377.50;4745768;30;20303;-86
2022/12/21 09:45:02;;;;;;;1.53;0.87;;;;;;;9.67;100.00;95382.44;4746533;30;20201;-89
2022/12/21 09:47:39;;;;;;;0.97;0.93;;;;;;;9.73;99.91;95378.44;4721274;30;20212;-89
2022/12/21 09:50:19;;;;;;;2.03;1.20;;;;;;;9.65;100.00;95379.19;4708211;30;20242;-87
2022/12/21 09:53:04;;;;;;;1.47;0.87;;;;;;;9.63;100.00;95376.72;4714536;30;20240;-89
2022/12/21 09:55:34;;;;;;;0.90;0.77;;;;;;;9.68;100.00;95384.06;4714158;30;20245;-87
2022/12/21 09:58:03;;;;;;;1.10;1.00;;;;;;;9.69;99.93;95385.69;4726333;30;20220;-88
2022/12/21 10:00:33;;;;;;;0.90;0.80;;;;;;;9.78;99.30;95384.00;4721573;30;20283;-87
2022/12/21 10:03:32;;;;;;;0.93;0.83;;;;;;;9.77;99.49;95388.38;4735029;30;20205;-87
2022/12/21 10:06:39;;;;;;;3.43;1.90;;;;;;;9.93;99.39;95378.16;4724562;30;20304;-85
2022/12/21 10:09:26;;;;;;;1.20;1.10;;;;;;;10.10;97.94;95388.69;4702748;30;20293;-86
2022/12/21 10:12:11;;;;;;;1.50;0.80;;;;;;;10.29;96.21;95378.19;4736281;29;20598;-86
2022/12/21 10:15:17;;;;;;;0.70;0.70;;;;;;;10.55;94.42;95386.00;4798640;29;20198;-87
2022/12/21 10:18:07;;;;;;;0.90;0.90;;;;;;;10.82;92.43;95379.06;4800464;29;20272;-87
2022/12/21 10:20:47;;;;;;;0.80;0.67;;;;;;;11.15;89.95;95377.47;4809548;29;20202;-87
2022/12/21 10:23:32;;;;;;;0.90;0.50;;;;;;;11.01;89.10;95374.44;4802409;29;20281;-86
2022/12/21 10:25:59;;;;;;;1.20;0.40;;;;;;;11.13;89.00;95374.19;4795136;29;20222;-86
2022/12/21 10:28:39;;;;;;;0.60;0.50;;;;;;;11.20;86.52;95368.22;4825188;29;20198;-86
2022/12/21 10:31:07;;;;;;;1.10;0.70;;;;;;;11.10;86.84;95371.91;4792909;29;20212;-86
2022/12/21 10:33:36;;;;;;;0.60;0.60;;;;;;;11.10;86.82;95371.91;4820354;29;20262;-86
2022/12/21 10:36:03;;;;;;;2.50;0.60;;;;;;;10.80;86.63;95368.81;4789515;29;20219;-87
2022/12/21 10:38:32;;;;;;;0.67;0.50;;;;;;;10.91;85.42;95368.56;4807385;29;20215;-87
2022/12/21 10:40:58;;;;;;;2.50;0.87;;;;;;;10.93;85.54;95377.00;4800649;29;20206;-86
2022/12/21 10:43:24;;;;;;;0.93;0.70;;;;;;;11.01;84.89;95369.25;4804283;29;20198;-87
2022/12/21 10:45:49;;;;;;;0.73;0.70;;;;;;;11.18;84.81;95359.75;4791630;29;20222;-88
2022/12/21 10:48:15;;;;;;;0.70;0.57;;;;;;;11.14;83.52;95358.44;4812563;29;20209;-86
2022/12/21 10:50:43;;;;;;;1.10;0.70;;;;;;;11.13;83.12;95361.19;4802163;29;20640;-87
2022/12/21 10:53:27;;;;;;;0.57;0.50;;;;;;;11.05;82.83;95361.97;4816556;29;20656;-88
2022/12/21 10:56:00;;;;;;;1.07;0.60;;;;;;;11.13;82.63;95355.97;4796910;29;20210;-86
2022/12/21 10:58:31;;;;;;;0.50;0.50;;;;;;;11.12;81.72;95356.97;4787157;29;20197;-85
2022/12/21 11:00:56;;;;;;;0.57;0.50;;;;;;;11.00;81.95;95352.03;4792010;29;20292;-86
2022/12/21 11:03:39;;;;;;;0.77;0.50;;;;;;;11.17;81.90;95357.31;4820359;29;20201;-86
2022/12/21 11:06:17;;;;;;;0.70;0.70;;;;;;;11.20;81.35;95362.19;4786366;29;20249;-86
2022/12/21 11:08:45;;;;;;;0.60;0.60;;;;;;;11.44;80.32;95359.69;4798877;29;20182;-87
2022/12/21 11:11:27;;;;;;;1.20;0.90;;;;;;;11.52;78.98;95367.53;4818147;29;20209;-86
2022/12/21 11:14:12;;;;;;;0.73;0.63;;;;;;;11.73;78.37;95374.09;4801529;29;20255;-86
2022/12/21 11:16:37;;;;;;;0.50;0.50;;;;;;;11.57;79.06;95378.28;4797400;29;20241;-87
2022/12/21 11:19:03;;;;;;;0.83;0.60;;;;;;;11.29;79.83;95366.47;4804359;29;20285;-86
2022/12/21 11:21:34;;;;;;;0.70;0.70;;;;;;;11.22;80.75;95365.44;4802551;29;20202;-86
2022/12/21 11:24:04;;;;;;;1.27;1.10;;;;;;;11.42;80.02;95366.03;4797968;29;20242;-86
2022/12/21 11:26:33;;;;;;;2.00;0.90;;;;;;;11.20;80.40;95350.00;4795080;29;20240;-86
2022/12/21 11:29:04;;;;;;;1.00;0.80;;;;;;;11.15;79.72;95360.09;4791665;29;20198;-86
2022/12/21 11:31:30;;;;;;;1.47;0.90;;;;;;;11.10;80.70;95369.31;4790714;29;20198;-85
2022/12/21 11:33:56;;;;;;;1.53;0.93;;;;;;;11.17;80.41;95357.31;4790121;29;20237;-86
2022/12/21 11:36:21;;;;;;;1.60;0.90;;;;;;;11.12;80.88;95362.16;4805635;29;20241;-84
2022/12/21 11:38:46;;;;;;;2.07;1.00;;;;;;;11.08;81.33;95361.66;4808821;29;20198;-86
2022/12/21 11:41:29;;;;;;;0.90;0.90;;;;;;;11.10;81.63;95359.72;4781193;29;20205;-86
2022/12/21 11:43:55;;;;;;;0.60;0.60;;;;;;;11.00;81.50;95356.41;4806973;29;20276;-86
2022/12/21 11:46:29;;;;;;;1.17;0.80;;;;;;;11.22;81.14;95360.25;4814356;29;20355;-87
2022/12/21 11:49:06;;;;;;;1.87;0.80;;;;;;;11.20;81.16;95354.41;4791336;29;20258;-87
2022/12/21 11:51:42;;;;;;;1.27;0.90;;;;;;;11.07;82.36;95347.03;4805207;29;20186;-88
2022/12/21 11:54:26;;;;;;;2.43;0.73;;;;;;;11.29;81.03;95345.66;4796202;29;20196;-86
2022/12/21 11:57:13;;;;;;;1.30;0.90;;;;;;;11.17;81.62;95345.13;4811365;29;20213;-85
2022/12/21 12:00:00;;;;;;;1.40;1.00;;;;;;;11.14;81.70;95337.66;4792339;29;20182;-88
2022/12/21 12:03:05;;;;;;;1.47;0.90;;;;;;;11.05;81.88;95339.41;4795991;29;20708;-86
2022/12/21 12:05:37;;;;;;;3.20;1.33;;;;;;;11.08;81.81;95343.47;4793700;29;20217;-87
2022/12/21 12:08:11;;;;;;;5.40;1.50;;;;;;;11.40;81.19;95344.59;4793942;29;20201;-88
2022/12/21 12:11:07;;;;;;;2.43;1.40;;;;;;;11.42;80.13;95340.84;4811981;29;20189;-88
2022/12/21 12:13:44;;;;;;;2.40;1.63;;;;;;;11.35;82.12;95339.84;4805287;29;20192;-86
2022/12/21 12:16:28;;;;;;;2.00;0.90;;;;;;;11.13;83.89;95345.59;4826902;29;20235;-89
2022/12/21 12:19:32;;;;;;;1.73;1.30;;;;;;;11.24;85.14;95337.53;4813037;29;20202;-88
2022/12/21 12:22:01;;;;;;;1.10;0.93;;;;;;;11.27;84.21;95334.63;4772939;29;20591;-88
2022/12/21 12:24:51;;;;;;;1.40;1.00;;;;;;;11.15;84.05;95328.09;4803213;29;20682;-89
2022/12/21 12:27:37;;;;;;;1.37;0.70;;;;;;;11.25;83.62;95326.97;4806067;29;20720;-88
2022/12/21 12:30:14;;;;;;;2.03;1.10;;;;;;;11.35;82.63;95329.44;4813434;29;20213;-86
2022/12/21 12:32:58;;;;;;;1.83;1.20;;;;;;;10.92;84.12;95333.00;4799942;29;20260;-87
2022/12/21 12:35:53;;;;;;;1.27;0.90;;;;;;;11.10;83.91;95325.94;4806895;29;20590;-88
2022/12/21 12:38:25;;;;;;;3.40;1.37;;;;;;;10.96;84.36;95327.34;4806224;29;20225;-88
2022/12/21 12:41:15;;;;;;;1.10;0.93;;;;;;;11.06;84.28;95317.66;4802498;29;20557;-89
2022/12/21 12:43:59;;;;;;;2.00;1.63;;;;;;;10.90;84.79;95320.16;4794520;29;20198;-87
2022/12/21 12:46:47;;;;;;;2.27;1.23;;;;;;;10.96;84.21;95316.97;4826278;29;20213;-87
2022/12/21 12:49:35;;;;;;;1.43;0.90;;;;;;;10.81;84.50;95309.91;4803529;29;20186;-87
2022/12/21 12:52:21;;;;;;;2.07;1.40;;;;;;;10.91;84.30;95313.19;4821795;29;20651;-88
2022/12/21 12:55:09;;;;;;;2.50;1.67;;;;;;;10.78;84.38;95309.25;4773163;29;20206;-89
2022/12/21 12:58:05;;;;;;;1.70;1.60;;;;;;;10.71;84.53;95310.81;4798593;29;20198;-89
2022/12/21 13:00:43;;;;;;;1.07;0.87;;;;;;;10.61;84.40;95312.72;4814508;29;20309;-88
2022/12/21 13:03:30;;;;;;;1.07;0.90;;;;;;;10.72;84.42;95319.41;4801378;29;20185;-88
2022/12/21 13:06:28;;;;;;;2.20;0.90;;;;;;;10.87;83.73;95315.28;4804588;29;20237;-87
2022/12/21 13:09:15;;;;;;;1.13;0.80;;;;;;;10.87;83.41;95315.28;4752932;30;20212;-88
2022/12/21 13:11:48;;;;;;;1.80;0.80;;;;;;;10.94;82.43;95316.28;4736848;30;20200;-88
2022/12/21 13:15:09;;;;;;;1.03;0.70;;;;;;;10.93;82.33;95309.44;4719503;30;20213;-88
2022/12/21 13:17:53;;;;;;;2.23;0.80;;;;;;;11.12;81.02;95304.97;4736763;30;20189;-90
2022/12/21 13:20:36;;;;;;;0.90;0.70;;;;;;;10.99;80.97;95303.66;4738667;30;20647;-89
2022/12/21 13:23:27;;;;;;;1.83;0.70;;;;;;;10.97;80.40;95292.59;4728104;30;20197;-89
2022/12/21 13:26:02;;;;;;;0.93;0.80;;;;;;;10.94;80.56;95298.09;4750119;30;21179;-88
2022/12/21 13:29:06;;;;;;;0.80;0.80;;;;;;;10.98;80.53;95289.03;4750832;30;20283;-89
2022/12/21 13:31:57;;;;;;;;;;;;;;;;;;;;;
2022/12/21 13:35:06;;;;;;;1.50;0.87;;;;;;;10.80;81.72;95275.31;4647007;30;20583;-87
2022/12/21 13:37:32;;;;;;;0.93;0.70;;;;;;;10.90;80.29;95282.97;4654459;30;20200;-88
2022/12/21 13:40:06;;;;;;;1.37;0.90;;;;;;;10.80;80.54;95285.69;4649085;30;20211;-87
2022/12/21 13:43:04;;;;;;;1.57;0.90;;;;;;;11.03;79.12;95276.38;4655691;30;20204;-90
2022/12/21 13:46:18;;;;;;;;;;;;;;;;;;;;;
2022/12/21 13:48:55;;;;;;;1.47;1.10;;;;;;;11.20;78.87;95279.84;4688170;30;20222;-86
2022/12/21 13:52:14;;;;;;;0.80;0.70;;;;;;;11.23;78.67;95283.94;4675132;30;20229;-86
2022/12/21 13:55:05;;;;;;;0.90;0.80;;;;;;;11.28;78.86;95287.66;4691588;30;20254;-87
2022/12/21 13:57:35;;;;;;;2.73;0.70;;;;;;;11.38;78.41;95281.50;4688479;30;20297;-88
2022/12/21 14:00:33;;;;;;;0.80;0.80;;;;;;;11.24;79.12;95290.75;4666871;30;20210;-87
2022/12/21 14:03:23;;;;;;;1.83;1.07;;;;;;;11.69;77.37;95290.38;4683901;30;20297;-87
2022/12/21 14:06:06;;;;;;;2.10;1.00;;;;;;;11.41;77.42;95300.22;4687267;30;20401;-88
2022/12/21 14:08:56;;;;;;;1.37;1.27;;;;;;;11.70;77.07;95296.38;4713890;30;20201;-87
2022/12/21 14:11:58;;;;;;;3.37;1.80;;;;;;;11.67;76.30;95291.50;4747451;30;20290;-87
2022/12/21 14:14:49;;;;;;;1.97;1.10;;;;;;;11.43;76.21;95293.06;4749031;30;20197;-86
2022/12/21 14:17:41;;;;;;;4.43;2.90;;;;;;;11.31;76.90;95287.38;4732385;30;20232;-88
2022/12/21 14:20:16;;;;;;;4.73;2.30;;;;;;;11.22;77.03;95288.31;4731745;30;20308;-87
2022/12/21 14:22:43;;;;;;;3.67;1.37;;;;;;;11.22;77.35;95282.28;4764013;29;20205;-87
2022/12/21 14:25:20;;;;;;;2.83;1.30;;;;;;;11.10;76.59;95283.53;4800452;29;20194;-89